Time;durP1;ratioP1;P1;durP2;ratioP2;P2;SDS_P1;SDS_P2;PMS_P1;PMS_P2;Temp;Humidity;BMP_temperature;BMP_pressure;BME280_temperature;BME280_humidity;BME280_pressure;Samples;Min_cycle;Max_cycle;Signal;HPM_P1;HPM_P2
2022/08/29 00:00:00;;;;;;;11.38;4.53;;;15.50;99.90;;;;;;5062511;28;20043;-84
2022/08/29 00:02:26;;;;;;;9.27;5.13;;;15.50;99.90;;;;;;5064918;28;20174;-84
2022/08/29 00:04:52;;;;;;;7.82;4.38;;;15.50;99.90;;;;;;5085219;28;20055;-84
2022/08/29 00:07:18;;;;;;;7.45;3.80;;;15.50;99.90;;;;;;5043990;28;20522;-84
2022/08/29 00:09:44;;;;;;;7.72;3.75;;;15.50;99.90;;;;;;5047879;28;20042;-84
2022/08/29 00:12:10;;;;;;;11.40;4.78;;;15.50;99.90;;;;;;5055673;28;20116;-84
2022/08/29 00:14:38;;;;;;;8.63;4.30;;;15.50;99.90;;;;;;5077489;28;20051;-84
2022/08/29 00:17:04;;;;;;;9.05;4.47;;;15.50;99.90;;;;;;5071974;28;20050;-84
2022/08/29 00:19:29;;;;;;;6.47;4.18;;;15.50;99.90;;;;;;5064367;27;20043;-84
2022/08/29 00:21:55;;;;;;;9.32;4.53;;;15.50;99.90;;;;;;5081285;28;20051;-84
2022/08/29 00:24:21;;;;;;;9.85;4.50;;;15.40;99.90;;;;;;5052568;28;21454;-84
2022/08/29 00:26:47;;;;;;;8.77;4.13;;;15.40;99.90;;;;;;5088039;28;20049;-84
2022/08/29 00:29:13;;;;;;;8.38;4.45;;;15.50;99.90;;;;;;5066910;28;20043;-84
2022/08/29 00:31:38;;;;;;;9.63;4.68;;;15.40;99.90;;;;;;5046165;28;20070;-84
2022/08/29 00:34:04;;;;;;;7.50;4.50;;;15.40;99.90;;;;;;5064569;28;20036;-84
2022/08/29 00:36:30;;;;;;;8.68;4.30;;;15.40;99.90;;;;;;5079099;28;20046;-84
2022/08/29 00:38:56;;;;;;;8.55;4.50;;;15.40;99.90;;;;;;5071911;28;20055;-84
2022/08/29 00:41:21;;;;;;;9.02;4.65;;;15.40;99.90;;;;;;5100226;28;20063;-84
2022/08/29 00:43:47;;;;;;;10.25;4.68;;;15.40;99.90;;;;;;5082443;28;20039;-85
2022/08/29 00:46:41;;;;;;;8.70;5.05;;;15.40;99.90;;;;;;5094649;28;20051;-84
2022/08/29 00:49:29;;;;;;;10.18;4.57;;;15.40;99.90;;;;;;5098378;28;20114;-84
2022/08/29 00:51:57;;;;;;;8.65;4.38;;;15.40;99.90;;;;;;5099607;28;20089;-84
2022/08/29 00:54:24;;;;;;;6.60;3.90;;;15.40;99.90;;;;;;5101603;28;20039;-84
2022/08/29 00:56:50;;;;;;;8.02;4.72;;;15.30;99.90;;;;;;5080331;28;20073;-84
2022/08/29 00:59:21;;;;;;;7.88;4.68;;;15.30;99.90;;;;;;5113206;28;20047;-84
2022/08/29 01:01:47;;;;;;;9.30;4.35;;;15.30;99.90;;;;;;5098321;28;20185;-84
2022/08/29 01:04:13;;;;;;;8.85;4.70;;;15.40;99.90;;;;;;5113185;28;20130;-84
2022/08/29 01:06:40;;;;;;;8.40;4.85;;;15.40;99.90;;;;;;5082667;28;20611;-84
2022/08/29 01:09:10;;;;;;;8.23;4.55;;;15.40;99.90;;;;;;5104510;27;20031;-84
2022/08/29 01:14:26;;;;;;;8.38;4.70;;;15.40;99.90;;;;;;5114278;27;20765;-84
2022/08/29 01:16:56;;;;;;;8.43;4.72;;;15.40;99.90;;;;;;5090145;27;20409;-84
2022/08/29 01:19:37;;;;;;;7.57;4.53;;;15.40;99.90;;;;;;5113906;27;20043;-84
2022/08/29 01:22:18;;;;;;;10.50;4.78;;;15.40;99.90;;;;;;5119490;27;20477;-84
2022/08/29 01:24:49;;;;;;;10.68;5.13;;;15.40;99.90;;;;;;5118829;27;20035;-84
2022/08/29 01:27:18;;;;;;;7.75;5.03;;;15.30;99.90;;;;;;5115339;27;20049;-84
2022/08/29 01:29:44;;;;;;;9.73;4.90;;;15.40;99.90;;;;;;5118245;27;20049;-85
2022/08/29 01:32:11;;;;;;;6.70;4.38;;;15.30;99.90;;;;;;5086011;27;20450;-85
2022/08/29 01:34:38;;;;;;;8.40;4.45;;;15.40;99.90;;;;;;5103906;27;20043;-85
2022/08/29 01:37:09;;;;;;;7.82;4.63;;;15.30;99.90;;;;;;5100251;27;20081;-84
2022/08/29 01:39:39;;;;;;;8.63;5.07;;;15.30;99.90;;;;;;5098696;27;20067;-84
2022/08/29 01:42:12;;;;;;;9.95;4.38;;;15.40;99.90;;;;;;5105689;27;20035;-84
2022/08/29 01:44:39;;;;;;;7.70;4.30;;;15.30;99.90;;;;;;5102428;27;20053;-84
2022/08/29 01:47:07;;;;;;;6.93;4.15;;;15.30;99.90;;;;;;5117892;27;20046;-85
2022/08/29 01:49:35;;;;;;;8.85;4.55;;;15.40;99.90;;;;;;5120527;27;20043;-84
2022/08/29 01:52:02;;;;;;;8.27;4.80;;;15.30;99.90;;;;;;5117510;27;20126;-84
2022/08/29 01:54:29;;;;;;;7.18;4.70;;;15.40;99.90;;;;;;5103970;27;20035;-84
2022/08/29 01:56:55;;;;;;;9.48;5.35;;;15.40;99.90;;;;;;5117896;27;20125;-84
2022/08/29 01:59:25;;;;;;;7.57;4.28;;;15.40;99.90;;;;;;5123045;27;20129;-84
2022/08/29 02:02:17;;;;;;;9.52;5.10;;;15.40;99.90;;;;;;5121739;27;20063;-84
2022/08/29 02:04:44;;;;;;;7.32;4.38;;;15.40;99.90;;;;;;5127203;27;20047;-85
2022/08/29 02:07:10;;;;;;;8.50;4.75;;;15.40;99.90;;;;;;5109549;27;20523;-84
2022/08/29 02:09:36;;;;;;;7.97;4.60;;;15.40;99.90;;;;;;5130640;27;20038;-85
2022/08/29 02:12:06;;;;;;;9.10;4.55;;;15.40;99.90;;;;;;5107678;27;20054;-84
2022/08/29 02:14:33;;;;;;;7.80;4.25;;;15.40;99.90;;;;;;5092590;27;20039;-84
2022/08/29 02:17:04;;;;;;;7.93;4.78;;;15.40;99.90;;;;;;5096425;27;20043;-84
2022/08/29 02:19:32;;;;;;;9.88;4.60;;;15.40;99.90;;;;;;5096570;27;20046;-84
2022/08/29 02:21:58;;;;;;;7.30;4.53;;;15.40;99.90;;;;;;5123120;27;20501;-84
2022/08/29 02:24:28;;;;;;;9.23;4.60;;;15.40;99.90;;;;;;5092302;27;20050;-85
2022/08/29 02:26:56;;;;;;;7.55;4.35;;;15.40;99.90;;;;;;5087621;27;20078;-85
2022/08/29 02:29:22;;;;;;;6.25;4.15;;;15.50;99.90;;;;;;5104403;27;20646;-85
2022/08/29 02:31:48;;;;;;;10.63;4.72;;;15.40;99.90;;;;;;5088737;27;20043;-84
2022/08/29 02:34:13;;;;;;;7.72;4.28;;;15.40;99.90;;;;;;5103524;27;20047;-84
2022/08/29 02:36:40;;;;;;;9.05;5.13;;;15.40;99.90;;;;;;5086902;27;20043;-85
2022/08/29 02:39:06;;;;;;;8.75;4.78;;;15.40;99.90;;;;;;5104428;27;20088;-84
2022/08/29 02:41:32;;;;;;;11.05;5.20;;;15.40;99.90;;;;;;5086652;27;20047;-84
2022/08/29 02:43:58;;;;;;;8.35;4.68;;;15.30;99.90;;;;;;5078971;27;20051;-84
2022/08/29 02:46:25;;;;;;;9.93;4.78;;;15.40;99.90;;;;;;5118286;27;20046;-84
2022/08/29 02:48:51;;;;;;;9.05;4.80;;;15.30;99.90;;;;;;5107060;27;20049;-84
2022/08/29 02:51:22;;;;;;;9.05;4.72;;;15.40;99.90;;;;;;5109384;27;20038;-84
2022/08/29 02:53:49;;;;;;;10.00;4.63;;;15.40;99.90;;;;;;5085073;27;20074;-84
2022/08/29 02:56:15;;;;;;;7.35;5.00;;;15.30;99.90;;;;;;5081020;27;20449;-84
2022/08/29 02:58:41;;;;;;;11.70;5.43;;;15.30;99.90;;;;;;5110173;27;20054;-84
2022/08/29 03:01:08;;;;;;;11.52;4.97;;;15.30;99.90;;;;;;5103311;27;20126;-85
2022/08/29 03:03:34;;;;;;;8.75;4.78;;;15.30;99.90;;;;;;5102497;27;20054;-84
2022/08/29 03:06:03;;;;;;;7.75;4.40;;;15.30;99.90;;;;;;5099041;27;20042;-84
2022/08/29 03:08:29;;;;;;;9.43;4.60;;;15.30;99.90;;;;;;5101558;27;20034;-84
2022/08/29 03:10:55;;;;;;;8.75;4.50;;;15.20;99.90;;;;;;5099512;27;20035;-84
2022/08/29 03:13:22;;;;;;;10.60;5.40;;;15.20;99.90;;;;;;5087543;27;20065;-84
2022/08/29 03:15:48;;;;;;;9.18;5.00;;;15.20;99.90;;;;;;5123886;27;20046;-85
2022/08/29 03:18:14;;;;;;;8.05;4.65;;;15.20;99.90;;;;;;5084502;27;20054;-84
2022/08/29 03:20:40;;;;;;;8.57;4.43;;;15.20;99.90;;;;;;5086464;27;20397;-84
2022/08/29 03:23:09;;;;;;;8.60;4.10;;;15.30;99.90;;;;;;5089367;27;20081;-84
2022/08/29 03:25:38;;;;;;;9.32;4.90;;;15.30;99.90;;;;;;5103856;27;20042;-84
2022/08/29 03:28:04;;;;;;;9.13;5.05;;;15.40;99.90;;;;;;5100565;27;20069;-85
2022/08/29 03:30:33;;;;;;;9.18;5.22;;;15.30;99.90;;;;;;5119024;27;20062;-84
2022/08/29 03:33:01;;;;;;;9.48;5.05;;;15.20;99.90;;;;;;5087170;27;20043;-84
2022/08/29 03:35:27;;;;;;;6.68;4.60;;;15.20;99.90;;;;;;5090830;27;20620;-84
2022/08/29 03:37:55;;;;;;;9.05;4.47;;;15.20;99.90;;;;;;5097935;27;20041;-84
2022/08/29 03:40:21;;;;;;;9.40;4.60;;;15.20;99.90;;;;;;5113297;27;20088;-84
2022/08/29 03:42:47;;;;;;;8.15;4.78;;;15.20;99.90;;;;;;5105769;27;20438;-84
2022/08/29 03:45:15;;;;;;;8.80;4.18;;;15.30;99.90;;;;;;5088027;27;20043;-84
2022/08/29 03:47:41;;;;;;;7.40;4.28;;;15.20;99.90;;;;;;5102693;27;20117;-84
2022/08/29 03:50:09;;;;;;;7.70;4.93;;;15.20;99.90;;;;;;5085030;27;20068;-84
2022/08/29 03:52:34;;;;;;;9.05;4.90;;;15.20;99.90;;;;;;5121689;27;20043;-84
2022/08/29 03:55:00;;;;;;;7.68;4.30;;;15.20;99.90;;;;;;5123145;27;20051;-84
2022/08/29 03:57:27;;;;;;;10.75;4.97;;;15.20;99.90;;;;;;5093872;27;20087;-84
2022/08/29 03:59:53;;;;;;;8.68;4.78;;;15.10;99.90;;;;;;5105002;27;20107;-84
2022/08/29 04:02:19;;;;;;;9.25;5.03;;;15.10;99.90;;;;;;5117350;27;20035;-83
2022/08/29 04:07:35;;;;;;;9.98;4.55;;;15.20;99.90;;;;;;5112395;27;20087;-84
2022/08/29 04:10:08;;;;;;;11.68;5.40;;;15.10;99.90;;;;;;5096702;27;20062;-85
2022/08/29 04:12:35;;;;;;;7.80;4.45;;;15.10;99.90;;;;;;5095539;27;21171;-84
2022/08/29 04:15:01;;;;;;;8.15;4.60;;;15.10;99.90;;;;;;5113205;27;20039;-84
2022/08/29 04:17:27;;;;;;;8.65;4.65;;;15.10;99.90;;;;;;5100770;27;20079;-84
2022/08/29 04:19:53;;;;;;;11.60;4.95;;;15.10;99.90;;;;;;5112557;27;20043;-85
2022/08/29 04:22:19;;;;;;;10.27;4.90;;;15.10;99.90;;;;;;5109486;27;20039;-85
2022/08/29 04:24:45;;;;;;;8.82;4.70;;;15.00;99.90;;;;;;5123196;27;20106;-85
2022/08/29 04:27:10;;;;;;;7.13;3.92;;;15.00;99.90;;;;;;5075638;27;20077;-85
2022/08/29 04:29:37;;;;;;;9.15;4.55;;;15.00;99.90;;;;;;5100700;27;20117;-84
2022/08/29 04:32:03;;;;;;;9.35;4.25;;;15.00;99.90;;;;;;5101440;27;20039;-84
2022/08/29 04:34:29;;;;;;;9.70;4.70;;;14.90;99.90;;;;;;5127404;27;20049;-85
2022/08/29 04:36:54;;;;;;;9.65;5.80;;;15.00;99.90;;;;;;5088688;27;21040;-85
2022/08/29 04:39:20;;;;;;;7.63;4.50;;;14.90;99.90;;;;;;5091128;28;20104;-84
2022/08/29 04:41:46;;;;;;;7.68;4.88;;;14.90;99.90;;;;;;5106341;27;20088;-84
2022/08/29 04:44:12;;;;;;;11.10;5.10;;;14.90;99.90;;;;;;5102500;28;20039;-84
2022/08/29 04:46:39;;;;;;;11.30;5.07;;;14.90;99.90;;;;;;5103253;27;20413;-84
2022/08/29 04:49:05;;;;;;;12.18;5.03;;;14.90;99.90;;;;;;5116822;27;20122;-83
2022/08/29 04:51:33;;;;;;;8.93;4.90;;;14.90;99.90;;;;;;5062347;28;20115;-83
2022/08/29 04:53:59;;;;;;;11.43;5.00;;;14.90;99.90;;;;;;5111147;27;20035;-83
2022/08/29 04:56:24;;;;;;;12.10;5.28;;;14.90;99.90;;;;;;5080832;27;20853;-82
2022/08/29 04:58:50;;;;;;;7.75;4.60;;;14.90;99.90;;;;;;5075984;27;20096;-83
2022/08/29 05:01:19;;;;;;;8.70;4.97;;;14.90;99.90;;;;;;5098965;27;20401;-82
2022/08/29 05:03:47;;;;;;;10.45;5.30;;;14.90;99.90;;;;;;5115168;27;20517;-83
2022/08/29 05:06:15;;;;;;;10.90;4.50;;;15.00;99.90;;;;;;5096257;27;20389;-83
2022/08/29 05:08:42;;;;;;;11.40;5.10;;;15.00;99.90;;;;;;5105224;27;20042;-83
2022/08/29 05:11:18;;;;;;;10.40;4.30;;;15.00;99.90;;;;;;5108287;27;20512;-83
2022/08/29 05:13:46;;;;;;;7.82;4.15;;;15.00;99.90;;;;;;5115872;27;20090;-83
2022/08/29 05:16:14;;;;;;;7.78;4.25;;;15.00;99.90;;;;;;5115272;27;20035;-84
2022/08/29 05:18:43;;;;;;;11.52;4.53;;;15.00;99.90;;;;;;5094607;27;21476;-83
2022/08/29 05:21:09;;;;;;;9.15;4.57;;;15.00;99.90;;;;;;5097647;27;20068;-83
2022/08/29 05:23:38;;;;;;;10.85;4.53;;;15.00;99.90;;;;;;5094085;27;20472;-83
2022/08/29 05:26:05;;;;;;;10.32;4.60;;;15.00;99.90;;;;;;5119263;27;20497;-83
2022/08/29 05:28:34;;;;;;;8.63;4.43;;;15.00;99.90;;;;;;5092582;27;20067;-83
2022/08/29 05:31:00;;;;;;;10.25;4.45;;;15.10;99.90;;;;;;5105511;27;20046;-83
2022/08/29 05:33:28;;;;;;;12.60;4.95;;;15.10;99.90;;;;;;5103596;27;20035;-84
2022/08/29 05:35:55;;;;;;;9.90;4.88;;;15.10;99.90;;;;;;5086979;27;20054;-84
2022/08/29 05:38:20;;;;;;;9.43;4.70;;;15.20;99.90;;;;;;5100342;27;20401;-84
2022/08/29 05:40:46;;;;;;;8.50;4.20;;;15.20;99.90;;;;;;5082835;27;20050;-84
2022/08/29 05:43:13;;;;;;;7.18;4.35;;;15.30;99.90;;;;;;5115482;27;20060;-84
2022/08/29 05:45:40;;;;;;;9.80;4.38;;;15.30;99.90;;;;;;5107868;27;20049;-84
2022/08/29 05:48:09;;;;;;;7.90;3.78;;;15.40;99.90;;;;;;5115033;27;20504;-85
2022/08/29 05:50:40;;;;;;;11.40;4.57;;;15.40;99.90;;;;;;5097598;27;20074;-84
2022/08/29 05:53:07;;;;;;;8.65;4.18;;;15.40;99.90;;;;;;5101727;27;20049;-84
2022/08/29 05:55:41;;;;;;;8.02;4.30;;;15.40;99.90;;;;;;5117229;27;20046;-84
2022/08/29 05:58:19;;;;;;;10.38;4.65;;;15.50;99.90;;;;;;5095598;27;20067;-84
2022/08/29 06:00:46;;;;;;;10.18;4.55;;;15.50;99.90;;;;;;5107848;27;20066;-84
2022/08/29 06:03:13;;;;;;;8.95;3.83;;;15.60;99.90;;;;;;5083659;27;20054;-84
2022/08/29 06:05:39;;;;;;;8.43;4.38;;;15.60;99.90;;;;;;5123351;27;20490;-84
2022/08/29 06:08:08;;;;;;;9.82;4.00;;;15.70;99.90;;;;;;5111365;27;20088;-84
2022/08/29 06:10:40;;;;;;;9.00;3.95;;;15.70;99.90;;;;;;5095372;27;20447;-84
2022/08/29 06:13:08;;;;;;;8.05;4.22;;;15.80;99.90;;;;;;5119718;27;20490;-84
2022/08/29 06:15:34;;;;;;;9.82;4.28;;;15.80;99.90;;;;;;5108552;27;20061;-83
2022/08/29 06:18:00;;;;;;;7.97;3.83;;;15.90;99.90;;;;;;5088793;27;20043;-84
2022/08/29 06:20:26;;;;;;;8.93;4.07;;;16.00;99.90;;;;;;5073540;27;20085;-84
2022/08/29 06:22:52;;;;;;;8.88;4.10;;;16.00;99.90;;;;;;5110397;27;20485;-84
2022/08/29 06:25:17;;;;;;;7.03;3.33;;;16.10;99.90;;;;;;5093990;27;20043;-83
2022/08/29 06:27:43;;;;;;;7.82;3.28;;;16.20;99.90;;;;;;5081115;27;20046;-83
2022/08/29 06:30:10;;;;;;;12.43;3.67;;;16.30;99.90;;;;;;5120673;27;20073;-85
2022/08/29 06:32:39;;;;;;;9.15;3.30;;;16.30;99.90;;;;;;5118545;27;20054;-85
2022/08/29 06:35:07;;;;;;;8.18;3.58;;;16.40;99.90;;;;;;5100261;27;20050;-84
2022/08/29 06:37:33;;;;;;;8.70;3.20;;;16.40;99.90;;;;;;5091472;27;20078;-84
2022/08/29 06:39:59;;;;;;;10.40;3.13;;;16.50;99.90;;;;;;5117986;27;20454;-84
2022/08/29 06:42:25;;;;;;;11.57;3.45;;;16.60;99.90;;;;;;5099130;27;20039;-83
2022/08/29 06:44:51;;;;;;;7.50;3.05;;;16.60;99.90;;;;;;5104879;27;20053;-84
2022/08/29 06:47:17;;;;;;;10.20;3.10;;;16.70;99.90;;;;;;5075132;27;20043;-83
2022/08/29 06:49:43;;;;;;;9.07;3.10;;;16.70;99.90;;;;;;5120386;27;20075;-84
2022/08/29 06:52:09;;;;;;;7.57;2.67;;;16.80;99.90;;;;;;5103923;27;20089;-83
2022/08/29 06:54:35;;;;;;;8.48;2.63;;;16.80;99.90;;;;;;5089932;27;20329;-82
2022/08/29 06:57:01;;;;;;;7.97;2.60;;;16.90;99.90;;;;;;5101029;27;20043;-84
2022/08/29 06:59:27;;;;;;;7.60;2.70;;;16.90;99.90;;;;;;5123082;27;20168;-83
2022/08/29 07:01:54;;;;;;;6.55;2.60;;;16.90;99.90;;;;;;5100066;27;20077;-84
2022/08/29 07:04:20;;;;;;;7.80;2.40;;;17.00;99.90;;;;;;5101812;27;20043;-83
2022/08/29 07:06:48;;;;;;;7.80;2.78;;;17.00;99.90;;;;;;5109851;27;20035;-84
2022/08/29 07:09:14;;;;;;;8.00;3.42;;;17.10;99.90;;;;;;5100974;27;20769;-84
2022/08/29 07:11:41;;;;;;;7.57;2.80;;;17.10;99.90;;;;;;5117118;27;20075;-84
2022/08/29 07:14:08;;;;;;;8.13;3.55;;;17.20;99.90;;;;;;5093441;27;20042;-84
2022/08/29 07:16:35;;;;;;;6.40;2.45;;;17.20;99.90;;;;;;5104292;27;20126;-84
2022/08/29 07:19:09;;;;;;;9.50;2.83;;;17.30;99.90;;;;;;5102657;27;20047;-83
2022/08/29 07:21:35;;;;;;;6.18;2.53;;;17.30;99.90;;;;;;5124949;27;20134;-84
2022/08/29 07:24:01;;;;;;;9.05;2.85;;;17.30;99.90;;;;;;5083289;27;20096;-83
2022/08/29 07:26:35;;;;;;;9.20;2.97;;;17.30;99.90;;;;;;5097395;27;20038;-85
2022/08/29 07:29:08;;;;;;;8.48;3.03;;;17.40;99.90;;;;;;5103390;27;20035;-83
2022/08/29 07:31:33;;;;;;;10.10;3.20;;;17.40;99.90;;;;;;5143844;27;20050;-83
2022/08/29 07:33:59;;;;;;;6.22;2.65;;;17.50;99.90;;;;;;5095991;27;20049;-85
2022/08/29 07:36:25;;;;;;;9.15;3.25;;;17.60;99.90;;;;;;5111569;27;20061;-84
2022/08/29 07:38:51;;;;;;;8.60;3.25;;;17.60;99.90;;;;;;5105773;27;20043;-84
2022/08/29 07:41:18;;;;;;;10.35;3.80;;;17.70;99.90;;;;;;5115242;27;20055;-83
2022/08/29 07:43:44;;;;;;;7.90;3.28;;;17.80;99.90;;;;;;5115203;27;20100;-84
2022/08/29 07:46:13;;;;;;;6.93;3.10;;;17.90;99.90;;;;;;5090330;27;20133;-84
2022/08/29 07:48:40;;;;;;;9.57;2.88;;;18.10;99.90;;;;;;5108529;27;20043;-83
2022/08/29 07:51:11;;;;;;;7.95;2.78;;;18.20;99.90;;;;;;5112040;27;20049;-84
2022/08/29 07:53:37;;;;;;;8.35;3.25;;;18.50;99.90;;;;;;5113305;27;20084;-84
2022/08/29 07:56:09;;;;;;;9.88;3.17;;;18.60;99.90;;;;;;5100527;27;20051;-84
2022/08/29 07:58:35;;;;;;;11.55;4.32;;;18.70;99.90;;;;;;5115613;27;20058;-84
2022/08/29 08:01:02;;;;;;;10.02;4.05;;;18.70;99.90;;;;;;5119549;27;20138;-83
2022/08/29 08:03:29;;;;;;;7.78;3.05;;;18.70;99.90;;;;;;5096979;27;20046;-84
2022/08/29 08:05:55;;;;;;;10.98;3.75;;;18.70;99.90;;;;;;5097211;27;20047;-86
2022/08/29 08:08:21;;;;;;;11.25;3.30;;;18.70;99.90;;;;;;5097037;27;20096;-85
2022/08/29 08:10:47;;;;;;;11.98;3.42;;;18.80;99.90;;;;;;5115277;27;20043;-84
2022/08/29 08:13:13;;;;;;;12.85;3.90;;;19.00;99.90;;;;;;5109416;27;20043;-84
2022/08/29 08:15:39;;;;;;;9.10;3.22;;;19.00;99.90;;;;;;5105423;27;20043;-84
2022/08/29 08:18:06;;;;;;;10.50;3.63;;;19.10;99.90;;;;;;5110156;27;20076;-85
2022/08/29 08:20:33;;;;;;;10.75;3.45;;;19.20;99.90;;;;;;5078675;27;20126;-85
2022/08/29 08:22:58;;;;;;;8.02;3.25;;;19.30;99.90;;;;;;5096987;27;20078;-84
2022/08/29 08:25:25;;;;;;;9.93;3.33;;;19.30;99.90;;;;;;5102681;27;20445;-84
2022/08/29 08:27:51;;;;;;;8.35;2.97;;;19.40;99.90;;;;;;5095662;27;20054;-84
2022/08/29 08:30:17;;;;;;;8.00;2.55;;;19.50;99.90;;;;;;5103576;27;20074;-83
2022/08/29 08:32:44;;;;;;;8.32;2.58;;;19.70;99.90;;;;;;5129367;27;20070;-83
2022/08/29 08:35:11;;;;;;;6.60;2.80;;;19.80;99.90;;;;;;5106473;27;20044;-83
2022/08/29 08:37:38;;;;;;;8.32;2.83;;;19.90;99.90;;;;;;5115596;27;20074;-84
2022/08/29 08:40:05;;;;;;;8.15;2.80;;;20.00;99.90;;;;;;5086733;27;20126;-84
2022/08/29 08:42:42;;;;;;;9.23;3.40;;;20.00;99.90;;;;;;5110053;27;20066;-83
2022/08/29 08:45:17;;;;;;;7.53;2.88;;;20.00;99.90;;;;;;5123053;27;20027;-84
2022/08/29 08:48:02;;;;;;;9.18;2.90;;;20.10;99.90;;;;;;5107251;27;20046;-85
2022/08/29 08:50:39;;;;;;;8.30;2.85;;;20.00;99.90;;;;;;5099451;27;20505;-84
2022/08/29 08:53:38;;;;;;;8.40;2.90;;;19.90;99.90;;;;;;5097693;27;20043;-84
2022/08/29 08:56:48;;;;;;;7.00;2.67;;;19.90;99.90;;;;;;5114227;27;20039;-82
2022/08/29 08:59:17;;;;;;;9.25;3.13;;;19.90;99.90;;;;;;5067532;28;20155;-83
2022/08/29 09:01:55;;;;;;;7.95;3.10;;;19.80;99.90;;;;;;5116289;27;20137;-84
2022/08/29 09:04:38;;;;;;;6.05;2.53;;;19.80;99.90;;;;;;5106618;27;20362;-84
2022/08/29 09:07:40;;;;;;;8.55;3.05;;;19.80;99.90;;;;;;5114027;27;20039;-83
2022/08/29 09:10:10;;;;;;;9.15;3.20;;;19.80;99.90;;;;;;5104194;27;20043;-83
2022/08/29 09:13:10;;;;;;;8.80;3.30;;;19.90;99.90;;;;;;5101105;27;20039;-83
2022/08/29 09:15:45;;;;;;;12.40;3.28;;;19.90;99.90;;;;;;5107199;27;20043;-83
2022/08/29 09:18:33;;;;;;;10.15;3.78;;;20.00;99.90;;;;;;5100282;27;20103;-83
2022/08/29 09:21:02;;;;;;;10.70;3.15;;;20.00;99.90;;;;;;5120691;27;20035;-83
2022/08/29 09:23:40;;;;;;;12.32;3.95;;;20.00;99.90;;;;;;5101240;27;20389;-83
2022/08/29 09:26:06;;;;;;;10.02;3.55;;;20.10;99.90;;;;;;5122747;27;20050;-82
2022/08/29 09:28:32;;;;;;;9.45;3.30;;;20.10;99.90;;;;;;5102015;27;20648;-83
2022/08/29 09:31:18;;;;;;;9.70;3.22;;;20.10;99.90;;;;;;5119349;27;20043;-83
2022/08/29 09:33:55;;;;;;;8.75;3.33;;;20.20;99.90;;;;;;5103039;27;20039;-83
2022/08/29 09:36:39;;;;;;;9.80;2.83;;;20.30;99.90;;;;;;5100661;27;20049;-85
2022/08/29 09:39:27;;;;;;;8.57;2.95;;;20.40;99.90;;;;;;5102037;27;20078;-84
2022/08/29 09:41:56;;;;;;;10.15;4.35;;;20.40;99.90;;;;;;5103444;27;20633;-83
2022/08/29 09:44:34;;;;;;;8.95;3.30;;;20.40;99.90;;;;;;5104984;27;20068;-83
2022/08/29 09:47:13;;;;;;;8.80;2.97;;;20.40;99.90;;;;;;5115175;27;20088;-85
2022/08/29 09:49:58;;;;;;;7.28;3.35;;;20.40;99.90;;;;;;5122618;27;20043;-83
2022/08/29 09:52:24;;;;;;;7.72;3.13;;;20.40;99.90;;;;;;5108242;27;20050;-83
2022/08/29 09:54:50;;;;;;;11.70;3.20;;;20.40;99.90;;;;;;5120352;27;20107;-82
2022/08/29 09:57:25;;;;;;;8.30;3.70;;;20.30;99.90;;;;;;5105807;27;20420;-82
2022/08/29 10:00:07;;;;;;;8.82;3.58;;;20.30;99.90;;;;;;5118477;27;20073;-82
2022/08/29 10:02:42;;;;;;;13.25;3.70;;;20.20;99.90;;;;;;5117307;27;20039;-83
2022/08/29 10:05:25;;;;;;;10.57;4.25;;;20.20;99.90;;;;;;5100391;27;20087;-82
2022/08/29 10:07:52;;;;;;;10.35;3.67;;;20.20;99.90;;;;;;5107270;27;20046;-81
2022/08/29 10:10:25;;;;;;;7.15;3.13;;;20.30;99.90;;;;;;5117273;27;20078;-81
2022/08/29 10:12:56;;;;;;;12.07;4.20;;;20.40;99.90;;;;;;5101964;27;20592;-82
2022/08/29 10:15:30;;;;;;;10.45;4.57;;;20.50;99.90;;;;;;5102292;27;20130;-83
2022/08/29 10:18:27;;;;;;;10.68;4.10;;;20.80;99.90;;;;;;5124513;27;20047;-83
2022/08/29 10:21:37;;;;;;;12.27;4.30;;;21.10;99.90;;;;;;5118067;27;20047;-82
2022/08/29 10:24:40;;;;;;;11.13;3.92;;;21.10;99.90;;;;;;5066095;28;20028;-81
2022/08/29 10:27:42;;;;;;;9.73;4.20;;;21.10;99.90;;;;;;5042153;28;20081;-82
2022/08/29 10:30:39;;;;;;;11.52;4.22;;;21.00;99.90;;;;;;5113838;27;20554;-84
2022/08/29 10:33:28;;;;;;;11.55;4.22;;;21.00;99.90;;;;;;5112328;27;20561;-81
2022/08/29 10:36:11;;;;;;;10.45;4.22;;;21.10;99.90;;;;;;5100595;27;20092;-82
2022/08/29 10:38:55;;;;;;;11.73;4.22;;;21.20;99.90;;;;;;5117018;27;20054;-82
2022/08/29 10:41:59;;;;;;;14.07;4.97;;;21.30;99.90;;;;;;5098870;27;20051;-81
2022/08/29 10:44:25;;;;;;;13.85;4.53;;;21.50;99.90;;;;;;5126125;27;20034;-79
2022/08/29 10:47:15;;;;;;;13.57;4.20;;;21.70;99.90;;;;;;5109940;27;20039;-82
2022/08/29 10:49:59;;;;;;;11.07;4.50;;;21.80;99.90;;;;;;5095425;27;20070;-81
2022/08/29 10:52:39;;;;;;;13.20;4.43;;;21.70;99.90;;;;;;5118019;27;20061;-81
2022/08/29 10:55:15;;;;;;;12.27;3.97;;;21.60;99.90;;;;;;5126017;27;20067;-81
2022/08/29 10:58:01;;;;;;;10.82;4.03;;;21.50;99.90;;;;;;5097534;27;20047;-81
2022/08/29 11:01:15;;;;;;;9.82;3.55;;;21.50;99.90;;;;;;5124776;27;20142;-83
2022/08/29 11:04:03;;;;;;;9.55;4.25;;;21.50;99.90;;;;;;5120493;27;20054;-83
2022/08/29 11:06:36;;;;;;;11.18;3.97;;;21.40;99.90;;;;;;5103715;27;20059;-82
2022/08/29 11:09:20;;;;;;;8.93;3.83;;;21.30;99.90;;;;;;5108161;27;20426;-83
2022/08/29 11:12:10;;;;;;;9.35;3.72;;;21.20;99.90;;;;;;5113572;27;20039;-82
2022/08/29 11:14:42;;;;;;;;;;;21.30;99.90;;;;;;5088738;27;20059;-82
2022/08/29 11:17:11;;;;;;;9.13;4.43;;;21.30;99.90;;;;;;5110840;27;19924;-82
2022/08/29 11:20:08;;;;;;;10.20;4.47;;;21.30;99.90;;;;;;5110149;27;20054;-84
2022/08/29 11:22:42;;;;;;;7.95;3.55;;;21.30;99.90;;;;;;5079562;27;20043;-83
2022/08/29 11:25:13;;;;;;;8.25;3.65;;;21.20;99.90;;;;;;5121470;27;20054;-84
2022/08/29 11:28:10;;;;;;;7.85;3.42;;;21.10;99.90;;;;;;5117008;27;20042;-83
2022/08/29 11:30:47;;;;;;;9.07;3.83;;;21.10;99.90;;;;;;5094452;27;20051;-82
2022/08/29 11:33:54;;;;;;;10.27;4.50;;;21.10;99.90;;;;;;5096723;27;20075;-82
2022/08/29 11:36:48;;;;;;;10.15;4.10;;;21.10;99.90;;;;;;5087474;27;20069;-85
2022/08/29 11:39:32;;;;;;;9.32;3.60;;;21.10;99.90;;;;;;5096422;27;20062;-85
2022/08/29 11:42:04;;;;;;;8.68;3.65;;;21.10;99.90;;;;;;5114710;27;20051;-83
2022/08/29 11:44:42;;;;;;;7.38;3.80;;;21.10;99.90;;;;;;5117479;27;20064;-83
2022/08/29 11:47:39;;;;;;;10.68;4.22;;;21.20;99.90;;;;;;5121639;27;20043;-83
2022/08/29 11:50:31;;;;;;;9.93;3.85;;;21.30;99.90;;;;;;5096614;27;20554;-82
2022/08/29 11:53:36;;;;;;;8.80;3.95;;;21.40;99.90;;;;;;5100943;27;20050;-83
2022/08/29 11:56:14;;;;;;;6.32;2.92;;;21.40;99.90;;;;;;5104118;27;21438;-84
2022/08/29 11:58:42;;;;;;;8.15;3.22;;;21.40;99.90;;;;;;5114606;27;20512;-85
2022/08/29 12:01:10;;;;;;;9.43;3.65;;;21.30;99.90;;;;;;5119202;27;20051;-83
2022/08/29 12:03:36;;;;;;;10.20;4.05;;;21.40;99.90;;;;;;5099670;27;20047;-81
2022/08/29 12:06:33;;;;;;;11.10;3.85;;;21.40;99.90;;;;;;5138785;27;20049;-84
2022/08/29 12:09:11;;;;;;;8.30;3.47;;;21.40;99.90;;;;;;5121870;27;20043;-83
2022/08/29 12:12:03;;;;;;;8.70;3.58;;;21.30;99.90;;;;;;5111393;27;20146;-84
2022/08/29 12:14:49;;;;;;;7.40;3.90;;;21.40;99.90;;;;;;5118878;27;20057;-82
2022/08/29 12:17:24;;;;;;;8.18;3.33;;;21.40;99.90;;;;;;5125125;27;20042;-82
2022/08/29 12:19:56;;;;;;;8.23;3.60;;;21.50;99.90;;;;;;5101746;27;20060;-83
2022/08/29 12:22:58;;;;;;;7.47;3.63;;;21.60;99.90;;;;;;5094061;27;20046;-83
2022/08/29 12:25:46;;;;;;;8.23;3.60;;;21.60;99.90;;;;;;5125029;27;20058;-84
2022/08/29 12:28:22;;;;;;;9.93;3.78;;;21.60;99.90;;;;;;5111194;27;20043;-82
2022/08/29 12:30:57;;;;;;;9.35;3.80;;;21.60;99.90;;;;;;5113679;27;20039;-83
2022/08/29 12:33:57;;;;;;;8.73;4.05;;;21.50;99.90;;;;;;5115613;27;20051;-84
2022/08/29 12:36:29;;;;;;;;;;;21.50;99.90;;;;;;5117789;27;20493;-84
2022/08/29 12:39:37;;;;;;;8.57;3.90;;;21.40;99.90;;;;;;5117711;27;19930;-83
2022/08/29 12:42:20;;;;;;;6.65;2.75;;;21.40;99.90;;;;;;5089804;27;20047;-83
2022/08/29 12:45:04;;;;;;;10.00;3.47;;;21.50;99.90;;;;;;5130187;27;20488;-86
2022/08/29 12:47:40;;;;;;;8.07;3.28;;;21.50;99.90;;;;;;5124040;27;20527;-80
2022/08/29 12:50:14;;;;;;;11.40;3.53;;;21.50;99.90;;;;;;5128009;27;20042;-80
2022/08/29 12:52:40;;;;;;;8.23;3.33;;;21.50;99.90;;;;;;5122757;27;20051;-79
2022/08/29 12:55:38;;;;;;;8.23;3.10;;;21.50;99.90;;;;;;5091897;27;20070;-84
2022/08/29 12:58:08;;;;;;;8.00;3.08;;;21.50;99.90;;;;;;5111899;27;20773;-83
2022/08/29 13:00:34;;;;;;;7.43;3.13;;;21.60;99.90;;;;;;5095652;28;20043;-81
2022/08/29 13:03:11;;;;;;;9.32;3.15;;;21.70;99.90;;;;;;5112411;27;20398;-81
2022/08/29 13:05:39;;;;;;;6.88;2.90;;;21.70;99.90;;;;;;5117597;27;20240;-82
2022/08/29 13:08:10;;;;;;;8.48;3.20;;;21.80;99.90;;;;;;5104361;27;20051;-83
2022/08/29 13:10:38;;;;;;;7.70;3.33;;;21.80;99.90;;;;;;5107691;28;20070;-84
2022/08/29 13:13:11;;;;;;;10.98;3.53;;;21.80;99.90;;;;;;5121867;28;20118;-80
2022/08/29 13:15:37;;;;;;;7.47;2.92;;;21.70;99.90;;;;;;5105488;27;20051;-83